메인 페이지
METAR-TAF:

METAR-TAF

공항 :

Palm Beach International Airport

웨스트팜비치, 플로리다, 미국

위도: 26-41-05N, 경도: 080-05-58W, 고도: 5m

현재 날씨관측

예보는 51분 전, 17:53시(UTC)에 발표되었습니다.
북북서12kt
온도 26°C
습도 65%
기압 1017 hPa
시정: 16.1km
고도 2300ft 상공 구름 보통
고도 3200ft 상공 구름 보통

METAR: KPBI 231753Z 34012KT 10SM SCT023 SCT032 26/19 A3002 RMK AO2 SLP166 T02560189 10267 20217 58012

시각: 13:44 (18:44 UTC)

예보

예보는 1 시간 17분 전, 17:27시(UTC)에 발표되었습니다.
예보 대상 시간: 23일 18시부터 24일 18시까지 (UTC)
10kt
시정: 10km
고도 2000ft 상공 구름 보통
고도 5000ft 상공 구름 보통
24일 0300시부터 (UTC)
북북동11kt
시정: 10km
고도 2000ft 상공 구름 조금
고도 10000ft 상공 구름 보통
24일 1300시부터 (UTC)
북동12kt, 순간 최대 풍속 22kt
시정: 10km
고도 2000ft 상공 구름 조금
고도 13000ft 상공 구름 보통

TAF: KPBI 231727Z 2318/2418 35010KT P6SM SCT020 SCT050 FM240300 02011KT P6SM FEW020 SCT100 FM241300 05012G22KT P6SM FEW020 SCT130

4,000개 이상의 공항 관측 자료 및 예보 (METAR 및 TAF 보고).

지도상에서 검색 가능한 기상관측소가 노란 점과 빨간 점으로 표시되어 있습니다.

기상관측소 명을 보려면 표시 위로 마우스를 이동하세요.

날씨 관측과 예보를 보려면 클릭하세요.

지도 변경 : 확대하려면 엑스 표시가 있는 녹색 버튼, 축소하려면 빼기 표시가 있는 녹색 버튼, 다음 페이지의 지도를 보려면 녹색 화살표를 클릭하세요.


METAR-TAF: